< < Back
Terminal Aerodrome Forecast


Current Version              Previous Versions:   1  2  3  4  5  6  7  8  9  

Terminal Aerodrome Forecast

972
FTUS42 KCAE 271700
TAFCAE
TAF
KCAE 271724Z 2718/2818 34009KT P6SM VCSH OVC015
     FM272000 36009KT P6SM BKN025
     FM272300 33007KT P6SM SCT030 BKN050
     FM281000 32008KT P6SM SCT250=

Latest METAR

063
SAUS80 KWBC 280500
MTRCAE
METAR KCAE 280456Z 26005KT 10SM FEW080 BKN100 08/06 A2990 RMK AO2 SLP126
T00780056 402000078


USA.gov is the U.S. government's official web portal to all federal, state and local government web resources and services.